This is the latest recevied weather packets stored in our database for station/object KB1JL-13. If no packets are shown the sender has not sent any weather packets the latest 10 day(s).
| Time | Temp. | Humidity | Pressure | Rain* | Wind** | Luminosity | Snow |
|---|---|---|---|---|---|---|---|
| 1778014191 | 21.11° C | 65% | 1020.2 hPa | 0 mm | - | 317 W/m² | - |
| 1778013890 | 20.56° C | 66% | 1019.9 hPa | 0 mm | - | 320 W/m² | - |
| 1778013586 | 21.11° C | 64% | 1020.2 hPa | 0 mm | - | 328 W/m² | - |
| 1778013283 | 21.11° C | 65% | 1020.2 hPa | 0 mm | - | 375 W/m² | - |
| 1778012979 | 21.11° C | 66% | 1020.2 hPa | 0 mm | - | 422 W/m² | - |
| 1778012676 | 21.11° C | 65% | 1020.5 hPa | 0 mm | - | 427 W/m² | - |
| 1778012372 | 21.11° C | 64% | 1019.9 hPa | 0 mm | - | 436 W/m² | - |
| 1778012069 | 21.67° C | 65% | 1020.5 hPa | 0 mm | - | 433 W/m² | - |
| 1778011767 | 21.67° C | 64% | 1020.2 hPa | 0 mm | - | 458 W/m² | - |
| 1778011464 | 21.67° C | 65% | 1020.5 hPa | 0 mm | - | 468 W/m² | - |
| 1778011160 | 21.67° C | 65% | 1020.5 hPa | 0 mm | - | 476 W/m² | - |
| 1778010858 | 21.67° C | 64% | 1020.5 hPa | 0 mm | - | 486 W/m² | - |
| 1778010554 | 21.67° C | 65% | 1020.5 hPa | 0 mm | - | 482 W/m² | - |
| 1778010252 | 21.11° C | 65% | 1020.2 hPa | 0 mm | - | 498 W/m² | - |
| 1778009946 | 21.67° C | 65% | 1020.5 hPa | 0 mm | - | 508 W/m² | - |
| 1778009644 | 21.67° C | 63% | 1020.5 hPa | 0 mm | - | 507 W/m² | - |
| 1778009342 | 21.67° C | 64% | 1020.5 hPa | 0 mm | - | 481 W/m² | - |
| 1778009040 | 22.22° C | 63% | 1020.5 hPa | 0 mm | - | 567 W/m² | - |
| 1778008737 | 22.22° C | 63% | 1020.5 hPa | 0 mm | - | 574 W/m² | - |
| 1778008436 | 22.22° C | 64% | 1020.9 hPa | 0 mm | - | 580 W/m² | - |
| 1778008132 | 22.22° C | 64% | 1020.9 hPa | 0 mm | - | 571 W/m² | - |
| 1778007827 | 22.22° C | 63% | 1020.9 hPa | 0 mm | - | 569 W/m² | - |
| 1778007523 | 22.22° C | 63% | 1020.9 hPa | 0 mm | - | 531 W/m² | - |
| 1778007220 | 22.78° C | 61% | 1020.9 hPa | 0 mm | - | 540 W/m² | - |
| 1778006916 | 22.22° C | 63% | 1020.9 hPa | 0 mm | - | 508 W/m² | - |
* Rain latest hour (hover to see other rain measurements)
** Current wind speed in m/s (hover to see current wind gust speed)